createdAt,value
2023-03-24T00:03:25.480Z,31.62
2023-03-24T00:08:34.452Z,31.61
2023-03-24T00:13:43.506Z,31.65
2023-03-24T00:18:51.329Z,31.58
2023-03-24T00:24:03.982Z,31.60
2023-03-24T00:29:11.670Z,31.53
2023-03-24T00:34:19.501Z,31.54
2023-03-24T00:39:27.232Z,31.54
2023-03-24T00:44:34.919Z,31.52
2023-03-24T00:49:51.761Z,31.54
2023-03-24T00:54:59.282Z,31.23
2023-03-24T01:00:07.011Z,31.55
2023-03-24T01:06:08.642Z,31.67
2023-03-24T01:10:36.145Z,31.76
2023-03-24T01:15:43.829Z,31.78
2023-03-24T01:21:03.056Z,31.84
2023-03-24T01:26:10.495Z,31.88
2023-03-24T01:31:29.030Z,31.96
2023-03-24T01:36:36.452Z,31.93
2023-03-24T01:41:50.301Z,31.91
2023-03-24T01:46:57.658Z,31.92
2023-03-24T01:52:05.065Z,32.18
2023-03-24T01:57:12.614Z,32.28
2023-03-24T02:02:19.985Z,32.25
2023-03-24T02:07:27.572Z,32.28
2023-03-24T02:12:35.303Z,32.32
2023-03-24T02:17:42.647Z,32.45
2023-03-24T02:22:50.233Z,32.49
2023-03-24T02:27:57.729Z,32.63
2023-03-24T02:33:05.129Z,32.60
2023-03-24T02:38:12.451Z,32.68
2023-03-24T02:43:27.410Z,32.74
2023-03-24T02:48:32.703Z,32.79
2023-03-24T02:53:40.189Z,32.99
2023-03-24T02:58:47.727Z,33.07
2023-03-24T03:03:59.835Z,33.93
2023-03-24T03:09:44.247Z,33.46
2023-03-24T03:14:51.599Z,33.29
2023-03-24T03:19:59.184Z,33.30
2023-03-24T03:25:06.486Z,33.23
2023-03-24T03:30:14.137Z,33.27
2023-03-24T03:35:21.628Z,32.96
2023-03-24T03:40:29.148Z,33.12
2023-03-24T03:45:36.680Z,33.25
2023-03-24T03:50:44.369Z,33.13
2023-03-24T03:55:51.773Z,32.88
2023-03-24T04:01:03.189Z,32.81
2023-03-24T04:06:15.348Z,33.21
2023-03-24T04:11:22.708Z,33.28
2023-03-24T04:16:30.344Z,33.60
2023-03-24T04:21:37.843Z,33.93
2023-03-24T04:26:45.374Z,34.37
2023-03-24T04:31:52.946Z,34.64
2023-03-24T04:37:00.140Z,34.75
2023-03-24T04:42:07.575Z,34.76
2023-03-24T04:47:15.132Z,35.21
2023-03-24T04:52:22.504Z,35.35
2023-03-24T04:57:29.743Z,35.40
2023-03-24T05:02:37.127Z,35.36
2023-03-24T05:07:44.250Z,35.26
2023-03-24T05:12:51.454Z,35.66
2023-03-24T05:17:58.812Z,35.72
2023-03-24T05:23:06.057Z,35.75
2023-03-24T05:28:13.243Z,35.73
2023-03-24T05:33:20.579Z,35.79
2023-03-24T05:38:27.723Z,35.32
2023-03-24T05:43:34.909Z,35.47
2023-03-24T05:48:42.100Z,35.58
2023-03-24T05:53:49.243Z,35.75
2023-03-24T05:58:56.450Z,36.50
2023-03-24T06:04:03.748Z,35.74
2023-03-24T06:09:10.813Z,35.95
2023-03-24T06:14:18.095Z,34.87
2023-03-24T06:19:25.389Z,34.86
2023-03-24T06:24:32.657Z,35.51
2023-03-24T06:29:39.867Z,35.18
2023-03-24T06:34:47.061Z,34.87
2023-03-24T06:39:54.226Z,34.53
2023-03-24T06:45:01.435Z,35.32
2023-03-24T06:50:08.705Z,36.22
2023-03-24T06:55:15.871Z,36.03
2023-03-24T07:00:23.151Z,35.86
2023-03-24T07:05:30.347Z,35.82
2023-03-24T07:10:37.514Z,35.31
2023-03-24T07:15:44.682Z,35.60
2023-03-24T07:20:51.917Z,35.44
2023-03-24T07:25:59.120Z,35.72
2023-03-24T07:31:06.374Z,35.72
2023-03-24T07:36:13.701Z,35.90
2023-03-24T07:41:20.725Z,36.08
2023-03-24T07:46:27.944Z,35.99
2023-03-24T07:51:38.482Z,35.59
2023-03-24T07:56:42.319Z,35.54
2023-03-24T08:01:51.497Z,35.87
2023-03-24T08:06:56.845Z,36.47
2023-03-24T08:12:13.519Z,36.68
2023-03-24T08:17:11.130Z,36.56
2023-03-24T08:22:18.450Z,36.63
2023-03-24T08:27:25.582Z,36.91
2023-03-24T08:32:32.796Z,37.48
2023-03-24T08:37:40.004Z,36.97
2023-03-24T08:42:47.165Z,37.30
2023-03-24T08:47:54.445Z,37.20
2023-03-24T08:53:01.644Z,37.38
2023-03-24T08:58:08.780Z,37.65
2023-03-24T09:03:15.981Z,37.99
2023-03-24T09:08:23.209Z,38.20
2023-03-24T09:13:30.358Z,38.18
2023-03-24T09:18:37.530Z,38.27
2023-03-24T09:23:44.918Z,38.27
2023-03-24T09:28:52.007Z,38.47
2023-03-24T09:33:59.400Z,38.45
2023-03-24T09:39:06.609Z,37.54
2023-03-24T09:44:13.847Z,36.45
2023-03-24T09:49:21.247Z,36.91
2023-03-24T09:54:28.591Z,36.83
2023-03-24T09:59:35.852Z,37.68
2023-03-24T10:04:43.188Z,38.33
2023-03-24T10:09:50.476Z,40.42
2023-03-24T10:14:57.798Z,43.05
2023-03-24T10:20:05.094Z,41.02
2023-03-24T10:25:12.457Z,42.18
2023-03-24T10:30:19.592Z,42.70
2023-03-24T10:35:26.796Z,41.45
2023-03-24T10:40:34.044Z,40.88
2023-03-24T10:45:41.268Z,40.21
2023-03-24T10:50:48.401Z,40.68
2023-03-24T10:55:55.662Z,41.05
2023-03-24T11:01:03.024Z,41.20
2023-03-24T11:06:10.048Z,40.91
2023-03-24T11:11:17.219Z,40.45
2023-03-24T11:16:24.453Z,39.78
2023-03-24T11:21:31.616Z,39.87
2023-03-24T11:26:38.807Z,40.02
2023-03-24T11:31:45.942Z,39.76
2023-03-24T11:36:53.317Z,40.22
2023-03-24T11:42:00.494Z,39.66
2023-03-24T11:47:07.746Z,39.11
2023-03-24T11:52:14.969Z,40.31
2023-03-24T11:57:22.192Z,41.95
2023-03-24T12:02:29.383Z,41.21
2023-03-24T12:07:36.590Z,41.24
2023-03-24T12:12:43.843Z,40.75
2023-03-24T12:17:51.017Z,40.17
2023-03-24T12:22:58.199Z,40.12
2023-03-24T12:28:05.401Z,40.17
2023-03-24T12:33:12.656Z,39.97
2023-03-24T12:38:19.873Z,39.90
2023-03-24T12:43:27.071Z,40.17
2023-03-24T12:48:34.210Z,38.88
2023-03-24T12:53:41.389Z,38.71
2023-03-24T12:58:48.612Z,40.93
2023-03-24T13:03:55.859Z,40.72
2023-03-24T13:09:03.047Z,41.87
2023-03-24T13:14:10.351Z,43.18
2023-03-24T13:19:17.548Z,42.03
2023-03-24T13:24:24.801Z,42.00
2023-03-24T13:29:41.787Z,42.64
2023-03-24T13:34:39.270Z,43.29
2023-03-24T13:39:46.497Z,42.93
2023-03-24T13:44:53.732Z,41.62
2023-03-24T13:50:00.962Z,40.96
2023-03-24T13:55:08.126Z,39.95
2023-03-24T14:00:15.327Z,40.27
2023-03-24T14:05:22.520Z,40.63
2023-03-24T14:10:29.683Z,39.72
2023-03-24T14:15:36.971Z,39.78
2023-03-24T14:20:44.141Z,39.42
2023-03-24T14:25:52.397Z,40.07
2023-03-24T14:30:59.653Z,40.15
2023-03-24T14:36:07.038Z,40.90
2023-03-24T14:41:14.057Z,40.51
2023-03-24T14:46:21.373Z,41.65
2023-03-24T14:51:28.449Z,40.76
2023-03-24T14:56:35.691Z,40.64
2023-03-24T15:01:42.883Z,40.71
2023-03-24T15:06:49.993Z,42.62
2023-03-24T15:11:57.262Z,41.38
2023-03-24T15:17:04.481Z,41.08
2023-03-24T15:22:11.664Z,41.39
2023-03-24T15:27:18.867Z,40.78
2023-03-24T15:32:26.080Z,40.68
2023-03-24T15:37:33.263Z,40.91
2023-03-24T15:42:40.508Z,40.87
2023-03-24T15:47:47.763Z,40.60
2023-03-24T15:52:54.865Z,40.67
2023-03-24T15:58:02.151Z,40.77
2023-03-24T16:03:09.585Z,40.13
2023-03-24T16:08:16.644Z,40.65
2023-03-24T16:13:23.987Z,40.47
2023-03-24T16:18:31.210Z,39.57
2023-03-24T16:23:38.412Z,40.11
2023-03-24T16:28:45.565Z,40.02
2023-03-24T16:33:52.774Z,42.00
2023-03-24T16:38:59.936Z,40.30
2023-03-24T16:44:07.084Z,39.30
2023-03-24T16:49:14.349Z,39.04
2023-03-24T16:54:21.551Z,38.56
2023-03-24T16:59:28.990Z,38.10
2023-03-24T17:04:36.584Z,38.57
2023-03-24T17:09:43.569Z,38.02
2023-03-24T17:14:50.824Z,37.84
2023-03-24T17:19:58.340Z,37.29
2023-03-24T17:25:06.553Z,37.05
2023-03-24T17:30:13.693Z,36.92
2023-03-24T17:35:20.957Z,36.61
2023-03-24T17:40:28.158Z,35.96
2023-03-24T17:45:35.414Z,35.89
2023-03-24T17:50:42.692Z,35.96
2023-03-24T17:55:50.190Z,35.68
2023-03-24T18:00:57.868Z,35.36
2023-03-24T18:06:05.227Z,35.49
2023-03-24T18:11:12.768Z,35.12
2023-03-24T18:16:21.826Z,35.07
2023-03-24T18:21:27.294Z,34.82
2023-03-24T18:26:34.842Z,34.47
2023-03-24T18:31:44.123Z,34.55
2023-03-24T18:36:51.786Z,34.34
2023-03-24T18:41:59.422Z,34.08
2023-03-24T18:47:07.046Z,33.87
2023-03-24T18:52:14.512Z,33.96
2023-03-24T18:57:22.065Z,33.79
2023-03-24T19:02:29.735Z,33.82
2023-03-24T19:07:37.417Z,34.06
2023-03-24T19:12:44.938Z,33.77
2023-03-24T19:17:52.653Z,33.36
2023-03-24T19:23:00.273Z,33.17
2023-03-24T19:28:07.861Z,33.10
2023-03-24T19:33:15.287Z,33.28
2023-03-24T19:38:22.920Z,33.12
2023-03-24T19:43:30.492Z,32.99
2023-03-24T19:48:38.021Z,33.16
2023-03-24T19:53:45.746Z,33.19
2023-03-24T19:58:53.644Z,33.17
2023-03-24T20:04:01.324Z,33.28
2023-03-24T20:09:09.003Z,33.18
2023-03-24T20:14:16.610Z,33.06
2023-03-24T20:19:24.215Z,32.93
2023-03-24T20:24:31.947Z,32.83
2023-03-24T20:29:39.697Z,33.06
2023-03-24T20:34:47.356Z,32.91
2023-03-24T20:39:54.812Z,32.89
2023-03-24T20:45:02.021Z,33.00
2023-03-24T20:50:09.235Z,32.91
2023-03-24T20:55:16.835Z,32.71
2023-03-24T21:00:24.404Z,32.86
2023-03-24T21:05:32.118Z,32.97
2023-03-24T21:10:42.734Z,33.05
2023-03-24T21:15:50.332Z,33.05
2023-03-24T21:20:57.443Z,32.99
2023-03-24T21:26:04.971Z,33.08
2023-03-24T21:31:12.400Z,33.00
2023-03-24T21:36:19.621Z,33.10
2023-03-24T21:41:26.859Z,32.88
2023-03-24T21:46:33.988Z,32.62
2023-03-24T21:51:41.194Z,32.61
2023-03-24T21:56:48.625Z,32.50
2023-03-24T22:01:55.940Z,32.50
2023-03-24T22:07:03.160Z,32.56
2023-03-24T22:12:10.468Z,32.55
2023-03-24T22:17:17.820Z,32.19
2023-03-24T22:22:25.004Z,32.33
2023-03-24T22:27:32.338Z,32.22
2023-03-24T22:32:39.692Z,32.17
2023-03-24T22:37:46.850Z,32.38
2023-03-24T22:42:54.073Z,32.13
2023-03-24T22:48:01.362Z,32.15
2023-03-24T22:53:08.559Z,32.20
2023-03-24T22:58:15.900Z,32.08
2023-03-24T23:03:23.220Z,31.95
2023-03-24T23:08:30.369Z,32.32
2023-03-24T23:13:37.631Z,32.29
2023-03-24T23:18:44.794Z,32.18
2023-03-24T23:23:52.015Z,32.11
2023-03-24T23:28:59.234Z,32.05
2023-03-24T23:34:06.505Z,31.59
2023-03-24T23:39:13.659Z,29.43
2023-03-24T23:44:20.896Z,30.93
2023-03-24T23:49:28.161Z,28.51
2023-03-24T23:54:35.432Z,29.94
2023-03-24T23:59:42.736Z,29.59
